createdAt,value
2022-10-18T00:02:20.565Z,20.88
2022-10-18T00:04:47.217Z,21.38
2022-10-18T00:07:13.878Z,23.17
2022-10-18T00:09:40.653Z,24.77
2022-10-18T00:12:07.286Z,25.33
2022-10-18T00:14:33.874Z,24.08
2022-10-18T00:17:00.533Z,26.02
2022-10-18T00:19:29.211Z,26.75
2022-10-18T00:21:56.438Z,27.60
2022-10-18T00:24:23.042Z,27.98
2022-10-18T00:26:49.673Z,27.55
2022-10-18T00:29:16.782Z,25.70
2022-10-18T00:31:44.292Z,26.55
2022-10-18T00:34:16.041Z,26.40
2022-10-18T00:36:43.839Z,26.77
2022-10-18T00:39:16.956Z,26.88
2022-10-18T00:41:44.201Z,27.77
2022-10-18T00:44:13.456Z,26.10
2022-10-18T00:46:42.914Z,26.27
2022-10-18T00:49:16.964Z,26.48
2022-10-18T00:52:00.097Z,28.60
2022-10-18T00:54:29.456Z,30.73
2022-10-18T00:56:56.256Z,29.90
2022-10-18T00:59:24.163Z,31.50
2022-10-18T01:01:50.772Z,32.72
2022-10-18T01:04:18.961Z,32.65
2022-10-18T01:07:27.216Z,32.28
2022-10-18T01:10:02.884Z,33.15
2022-10-18T01:12:52.509Z,32.60
2022-10-18T01:15:34.580Z,33.75
2022-10-18T01:18:14.224Z,31.75
2022-10-18T01:21:18.784Z,32.35
2022-10-18T01:24:10.791Z,34.55
2022-10-18T01:27:02.381Z,33.88
2022-10-18T01:30:08.577Z,35.35
2022-10-18T01:32:41.077Z,37.10
2022-10-18T01:35:13.559Z,36.67
2022-10-18T01:37:44.175Z,35.42
2022-10-18T01:40:14.318Z,34.60
2022-10-18T01:42:42.003Z,29.60
2022-10-18T01:45:10.292Z,29.70
2022-10-18T01:47:37.160Z,28.63
2022-10-18T01:50:06.209Z,28.88
2022-10-18T01:52:33.143Z,26.05
2022-10-18T01:55:01.624Z,26.83
2022-10-18T01:57:40.602Z,26.83
2022-10-18T02:00:24.168Z,27.33
2022-10-18T02:03:16.097Z,28.00
2022-10-18T02:06:12.885Z,28.73
2022-10-18T02:08:49.841Z,29.38
2022-10-18T02:11:18.122Z,26.75
2022-10-18T02:14:06.680Z,28.48
2022-10-18T02:16:41.334Z,28.73
2022-10-18T02:19:14.406Z,28.38
2022-10-18T02:21:43.295Z,26.88
2022-10-18T02:24:12.799Z,28.00
2022-10-18T02:26:39.574Z,29.25
2022-10-18T02:29:06.832Z,28.75
2022-10-18T02:31:42.168Z,28.45
2022-10-18T02:34:34.489Z,28.58
2022-10-18T02:37:02.284Z,27.80
2022-10-18T02:39:37.905Z,28.92
2022-10-18T02:42:08.817Z,30.00
2022-10-18T02:44:36.817Z,29.20
2022-10-18T02:47:05.192Z,30.52
2022-10-18T02:49:31.828Z,31.40
2022-10-18T02:51:58.456Z,31.25
2022-10-18T02:54:25.141Z,31.90
2022-10-18T02:56:51.798Z,31.08
2022-10-18T02:59:18.387Z,31.17
2022-10-18T03:01:45.147Z,32.67
2022-10-18T03:04:11.911Z,32.80
2022-10-18T03:06:38.632Z,33.95
2022-10-18T03:09:06.574Z,34.38
2022-10-18T03:11:33.334Z,35.20
2022-10-18T03:14:00.094Z,36.50
2022-10-18T03:16:27.633Z,37.40
2022-10-18T03:18:54.275Z,37.38
2022-10-18T03:21:20.913Z,37.40
2022-10-18T03:23:47.502Z,40.05
2022-10-18T03:26:14.177Z,38.10
2022-10-18T03:28:40.806Z,36.90
2022-10-18T03:31:07.456Z,38.75
2022-10-18T03:33:34.126Z,39.28
2022-10-18T03:36:00.703Z,39.83
2022-10-18T03:38:27.613Z,40.38
2022-10-18T03:40:54.244Z,41.88
2022-10-18T03:43:21.142Z,42.80
2022-10-18T03:45:47.770Z,41.35
2022-10-18T03:48:14.364Z,42.13
2022-10-18T03:50:41.032Z,45.15
2022-10-18T03:53:07.731Z,44.25
2022-10-18T03:55:34.401Z,43.58
2022-10-18T03:58:00.985Z,42.70
2022-10-18T04:00:27.622Z,41.92
2022-10-18T04:02:55.943Z,40.08
2022-10-18T04:05:28.099Z,40.72
2022-10-18T04:07:55.040Z,41.47
2022-10-18T04:10:22.103Z,41.10
2022-10-18T04:12:48.741Z,43.45
2022-10-18T04:15:15.532Z,43.65
2022-10-18T04:17:42.175Z,44.08
2022-10-18T04:20:09.229Z,43.70
2022-10-18T04:22:35.827Z,44.55
2022-10-18T04:25:02.500Z,46.05
2022-10-18T04:27:29.294Z,46.60
2022-10-18T04:29:56.170Z,46.63
2022-10-18T04:32:23.186Z,46.17
2022-10-18T04:34:49.868Z,47.00
2022-10-18T04:37:17.251Z,48.65
2022-10-18T04:39:51.168Z,49.28
2022-10-18T04:42:20.817Z,48.47
2022-10-18T04:44:47.602Z,48.30
2022-10-18T04:47:14.242Z,48.58
2022-10-18T04:49:40.976Z,49.78
2022-10-18T04:52:07.873Z,51.58
2022-10-18T04:54:34.876Z,47.15
2022-10-18T04:57:01.479Z,43.30
2022-10-18T04:59:28.325Z,41.95
2022-10-18T05:01:55.085Z,45.05
2022-10-18T05:04:21.738Z,49.33
2022-10-18T05:06:48.411Z,49.63
2022-10-18T05:09:15.073Z,50.05
2022-10-18T05:11:41.739Z,48.50
2022-10-18T05:14:10.143Z,50.53
2022-10-18T05:16:36.801Z,46.70
2022-10-18T05:19:05.548Z,49.45
2022-10-18T05:21:32.843Z,46.47
2022-10-18T05:23:59.595Z,47.92
2022-10-18T05:26:26.337Z,48.45
2022-10-18T05:28:53.028Z,47.90
2022-10-18T05:31:19.734Z,44.70
2022-10-18T05:33:46.347Z,44.75
2022-10-18T05:36:12.935Z,45.50
2022-10-18T05:38:43.429Z,45.10
2022-10-18T05:41:10.930Z,45.03
2022-10-18T05:43:38.364Z,44.33
2022-10-18T05:46:07.256Z,46.00
2022-10-18T05:48:35.937Z,45.33
2022-10-18T05:51:02.601Z,46.33
2022-10-18T05:53:36.824Z,46.38
2022-10-18T05:56:04.589Z,49.40
2022-10-18T05:58:31.213Z,50.22
2022-10-18T06:01:01.968Z,51.53
2022-10-18T06:03:30.471Z,53.20
2022-10-18T06:06:04.742Z,52.10
2022-10-18T06:08:31.780Z,49.45
2022-10-18T06:10:58.374Z,52.67
2022-10-18T06:13:25.133Z,53.30
2022-10-18T06:15:57.365Z,50.28
2022-10-18T06:18:24.061Z,50.10
2022-10-18T06:20:56.572Z,50.50
2022-10-18T06:23:23.158Z,51.63
2022-10-18T06:25:49.727Z,50.22
2022-10-18T06:28:16.332Z,51.58
2022-10-18T06:30:42.941Z,52.20
2022-10-18T06:33:11.854Z,51.10
2022-10-18T06:35:38.490Z,50.20
2022-10-18T06:38:06.203Z,49.45
2022-10-18T06:40:37.842Z,47.85
2022-10-18T06:43:20.093Z,48.70
2022-10-18T06:45:47.771Z,49.75
2022-10-18T06:48:14.367Z,51.75
2022-10-18T06:50:40.952Z,51.20
2022-10-18T06:53:08.966Z,54.70
2022-10-18T06:55:35.929Z,55.10
2022-10-18T06:58:02.694Z,51.20
2022-10-18T07:00:29.461Z,53.80
2022-10-18T07:02:58.191Z,52.08
2022-10-18T07:05:24.973Z,51.13
2022-10-18T07:07:54.299Z,52.55
2022-10-18T07:10:25.030Z,59.72
2022-10-18T07:12:59.218Z,57.63
2022-10-18T07:15:38.234Z,67.63
2022-10-18T07:18:04.788Z,76.82
2022-10-18T07:20:31.413Z,87.30
2022-10-18T07:22:58.081Z,78.90
2022-10-18T07:25:27.162Z,59.10
2022-10-18T07:27:56.611Z,50.97
2022-10-18T07:30:23.234Z,49.83
2022-10-18T07:32:51.785Z,52.85
2022-10-18T07:35:18.797Z,52.38
2022-10-18T07:37:45.400Z,51.33
2022-10-18T07:40:12.472Z,50.83
2022-10-18T07:42:39.120Z,51.47
2022-10-18T07:45:05.902Z,51.70
2022-10-18T07:47:35.102Z,49.47
2022-10-18T07:50:02.065Z,48.55
2022-10-18T07:52:28.658Z,50.03
2022-10-18T07:54:55.223Z,49.63
2022-10-18T07:57:23.310Z,51.40
2022-10-18T07:59:56.083Z,50.63
2022-10-18T08:02:24.114Z,49.80
2022-10-18T08:04:50.870Z,47.78
2022-10-18T08:07:17.512Z,49.28
2022-10-18T08:09:44.081Z,50.40
2022-10-18T08:12:10.798Z,51.97
2022-10-18T08:14:37.365Z,49.47
2022-10-18T08:17:03.999Z,49.40
2022-10-18T08:19:30.682Z,49.13
2022-10-18T08:21:57.304Z,46.97
2022-10-18T08:24:23.980Z,50.28
2022-10-18T08:26:50.618Z,48.63
2022-10-18T08:29:23.941Z,48.72
2022-10-18T08:31:52.471Z,48.95
2022-10-18T08:34:19.973Z,50.03
2022-10-18T08:36:46.797Z,46.88
2022-10-18T08:39:13.406Z,47.53
2022-10-18T08:41:51.314Z,46.50
2022-10-18T08:44:22.666Z,43.88
2022-10-18T08:46:59.638Z,43.90
2022-10-18T08:49:47.027Z,43.13
2022-10-18T08:52:41.877Z,43.13
2022-10-18T08:55:30.140Z,42.88
2022-10-18T08:57:58.238Z,42.50
2022-10-18T09:00:30.491Z,39.78
2022-10-18T09:03:18.724Z,40.28
2022-10-18T09:05:50.457Z,41.20
2022-10-18T09:08:24.821Z,39.03
2022-10-18T09:11:21.131Z,38.85
2022-10-18T09:14:02.330Z,37.53
2022-10-18T09:16:46.380Z,38.45
2022-10-18T09:19:29.643Z,37.28
2022-10-18T09:22:13.861Z,37.03
2022-10-18T09:24:52.568Z,38.15
2022-10-18T09:27:22.147Z,36.55
2022-10-18T09:30:02.702Z,38.25
2022-10-18T09:32:51.552Z,35.13
2022-10-18T09:35:40.939Z,35.05
2022-10-18T09:38:12.584Z,32.97
2022-10-18T09:41:09.286Z,32.05
2022-10-18T09:43:47.922Z,33.15
2022-10-18T09:46:16.847Z,33.08
2022-10-18T09:48:58.493Z,33.40
2022-10-18T09:51:29.668Z,32.67
2022-10-18T09:54:20.609Z,31.05
2022-10-18T09:57:10.326Z,33.78
2022-10-18T09:59:47.909Z,34.40
2022-10-18T10:02:25.014Z,36.08
2022-10-18T10:04:54.096Z,33.17
2022-10-18T10:07:28.594Z,31.50
2022-10-18T10:10:06.886Z,28.35
2022-10-18T10:12:38.096Z,28.67
2022-10-18T10:15:20.254Z,27.17
2022-10-18T10:17:57.250Z,26.13
2022-10-18T10:20:42.037Z,25.60
2022-10-18T10:23:33.902Z,24.30
2022-10-18T10:26:27.702Z,23.30
2022-10-18T10:28:54.536Z,22.55
2022-10-18T10:31:24.061Z,22.17
2022-10-18T10:34:14.958Z,22.88
2022-10-18T10:36:53.174Z,22.27
2022-10-18T10:39:22.538Z,21.45
2022-10-18T10:41:52.283Z,20.98
2022-10-18T10:44:21.381Z,21.35
2022-10-18T10:46:49.958Z,21.52
2022-10-18T10:49:39.198Z,23.13
2022-10-18T10:52:08.700Z,23.10
2022-10-18T10:54:50.414Z,22.17
2022-10-18T10:57:25.853Z,22.05
2022-10-18T10:59:56.023Z,22.25
2022-10-18T11:02:30.877Z,22.20
2022-10-18T11:05:25.646Z,23.33
2022-10-18T11:07:59.244Z,23.05
2022-10-18T11:10:30.637Z,22.33
2022-10-18T11:13:24.597Z,21.05
2022-10-18T11:16:00.296Z,20.25
2022-10-18T11:18:37.036Z,17.58
2022-10-18T11:23:37.428Z,17.38
2022-10-18T11:26:13.200Z,14.73
2022-10-18T11:29:08.131Z,15.40
2022-10-18T11:32:07.791Z,15.93
2022-10-18T11:34:54.475Z,15.40
2022-10-18T11:37:40.417Z,13.60
2022-10-18T11:40:36.297Z,12.20
2022-10-18T11:44:01.798Z,13.32
2022-10-18T11:46:48.104Z,13.13
2022-10-18T11:49:56.841Z,13.85
2022-10-18T11:52:53.304Z,12.40
2022-10-18T11:55:46.081Z,11.85
2022-10-18T11:58:30.787Z,11.75
2022-10-18T12:01:06.373Z,10.57
2022-10-18T12:03:52.642Z,13.07
2022-10-18T12:06:23.729Z,12.90
2022-10-18T12:08:56.387Z,13.18
2022-10-18T12:11:34.480Z,11.75
2022-10-18T12:14:50.728Z,11.68
2022-10-18T12:17:58.154Z,12.68
2022-10-18T12:20:49.782Z,12.20
2022-10-18T12:23:39.009Z,12.82
2022-10-18T12:26:11.750Z,13.65
2022-10-18T12:29:39.896Z,13.23
2022-10-18T12:32:14.472Z,12.50
2022-10-18T12:34:43.465Z,12.30
2022-10-18T12:37:44.166Z,10.55
2022-10-18T12:40:21.575Z,10.43
2022-10-18T12:43:02.649Z,10.65
2022-10-18T12:45:35.388Z,10.05
2022-10-18T12:48:06.381Z,9.63
2022-10-18T12:50:36.753Z,9.75
2022-10-18T12:53:06.315Z,9.23
2022-10-18T12:55:38.598Z,8.40
2022-10-18T12:58:21.064Z,7.55
2022-10-18T13:00:47.768Z,6.78
2022-10-18T13:03:16.571Z,6.97
2022-10-18T13:05:54.376Z,6.75
2022-10-18T13:08:27.843Z,6.55
2022-10-18T13:11:09.879Z,7.25
2022-10-18T13:13:50.588Z,7.30
2022-10-18T13:16:35.449Z,7.00
2022-10-18T13:19:17.351Z,6.15
2022-10-18T13:22:07.450Z,5.53
2022-10-18T13:25:05.434Z,7.07
2022-10-18T13:28:07.408Z,5.95
2022-10-18T13:30:45.802Z,5.30
2022-10-18T13:33:35.465Z,4.70
2022-10-18T13:36:22.989Z,4.90
2022-10-18T13:39:03.687Z,4.47
2022-10-18T13:41:43.492Z,3.97
2022-10-18T13:44:43.820Z,3.95
2022-10-18T13:47:16.313Z,3.88
2022-10-18T13:50:19.096Z,4.05
2022-10-18T13:53:20.722Z,3.85
2022-10-18T13:56:48.637Z,3.65
2022-10-18T13:59:31.613Z,3.55
2022-10-18T14:02:36.501Z,4.05
2022-10-18T14:05:32.269Z,3.90
2022-10-18T14:08:14.447Z,4.22
2022-10-18T14:11:01.892Z,4.32
2022-10-18T14:13:38.694Z,3.97
2022-10-18T14:16:17.442Z,4.20
2022-10-18T14:18:47.153Z,4.25
2022-10-18T14:21:26.264Z,3.42
2022-10-18T14:23:55.721Z,3.65
2022-10-18T14:26:22.825Z,3.83
2022-10-18T14:29:06.354Z,4.07
2022-10-18T14:31:34.507Z,4.20
2022-10-18T14:34:02.443Z,3.75
2022-10-18T14:36:40.978Z,3.60
2022-10-18T14:39:18.350Z,3.15
2022-10-18T14:41:56.776Z,2.85
2022-10-18T14:44:29.329Z,3.17
2022-10-18T14:47:16.285Z,3.58
2022-10-18T14:49:44.781Z,3.40
2022-10-18T14:52:35.097Z,3.22
2022-10-18T14:55:02.538Z,3.30
2022-10-18T14:57:35.951Z,4.40
2022-10-18T15:00:08.913Z,3.20
2022-10-18T15:02:37.862Z,3.15
2022-10-18T15:05:31.003Z,3.83
2022-10-18T15:07:59.987Z,3.42
2022-10-18T15:10:30.832Z,3.35
2022-10-18T15:13:11.243Z,3.50
2022-10-18T15:15:39.199Z,3.03
2022-10-18T15:18:06.826Z,3.05
2022-10-18T15:20:39.513Z,3.35
2022-10-18T15:23:23.150Z,3.40
2022-10-18T15:25:52.034Z,2.70
2022-10-18T15:28:32.574Z,2.40
2022-10-18T15:31:01.618Z,2.35
2022-10-18T15:33:34.290Z,2.03
2022-10-18T15:36:12.518Z,2.45
2022-10-18T15:38:39.317Z,1.95
2022-10-18T15:41:44.890Z,2.30
2022-10-18T15:44:46.761Z,2.08
2022-10-18T15:47:13.353Z,2.28
2022-10-18T15:49:46.182Z,1.92
2022-10-18T15:52:21.713Z,2.05
2022-10-18T15:57:20.645Z,1.83
2022-10-18T16:00:00.484Z,2.55
2022-10-18T16:02:27.089Z,2.40
2022-10-18T16:04:53.967Z,2.20
2022-10-18T16:07:20.607Z,2.50
2022-10-18T16:09:47.246Z,2.88
2022-10-18T16:12:13.886Z,2.35
2022-10-18T16:14:40.465Z,2.40
2022-10-18T16:17:07.498Z,2.42
2022-10-18T16:19:34.146Z,2.80
2022-10-18T16:22:06.084Z,2.80
2022-10-18T16:24:33.385Z,6.75
2022-10-18T16:27:00.110Z,5.90
2022-10-18T16:29:28.745Z,3.70
2022-10-18T16:31:58.477Z,3.30
2022-10-18T16:34:27.017Z,3.38
2022-10-18T16:36:54.300Z,3.17
2022-10-18T16:39:22.017Z,2.70
2022-10-18T16:41:49.252Z,2.80
2022-10-18T16:44:16.673Z,2.90
2022-10-18T16:46:43.381Z,3.05
2022-10-18T16:51:52.498Z,2.85
2022-10-18T16:54:19.430Z,2.60
2022-10-18T16:56:47.738Z,3.13
2022-10-18T16:59:27.326Z,3.67
2022-10-18T17:01:54.001Z,3.25
2022-10-18T17:04:20.689Z,3.33
2022-10-18T17:06:48.932Z,3.25
2022-10-18T17:09:16.307Z,3.40
2022-10-18T17:11:43.135Z,3.60
2022-10-18T17:14:09.720Z,3.60
2022-10-18T17:16:38.611Z,3.28
2022-10-18T17:19:07.641Z,3.38
2022-10-18T17:21:34.815Z,3.63
2022-10-18T17:24:03.040Z,4.25
2022-10-18T17:26:30.519Z,3.50
2022-10-18T17:29:04.226Z,3.42
2022-10-18T17:31:31.947Z,3.50
2022-10-18T17:34:01.377Z,3.30
2022-10-18T17:36:28.221Z,4.07
2022-10-18T17:38:55.804Z,3.22
2022-10-18T17:41:22.845Z,3.83
2022-10-18T17:43:53.109Z,3.30
2022-10-18T17:46:23.695Z,3.58
2022-10-18T17:48:50.382Z,3.90
2022-10-18T17:51:17.467Z,4.00
2022-10-18T17:53:44.269Z,4.10
2022-10-18T17:56:11.837Z,3.92
2022-10-18T17:58:38.686Z,4.50
2022-10-18T18:01:20.041Z,4.80
2022-10-18T18:03:49.834Z,5.10
2022-10-18T18:06:30.768Z,5.70
2022-10-18T18:08:58.667Z,5.50
2022-10-18T18:11:25.609Z,5.10
2022-10-18T18:13:54.221Z,5.43
2022-10-18T18:16:23.292Z,4.97
2022-10-18T18:18:53.828Z,5.28
2022-10-18T18:21:21.405Z,4.70
2022-10-18T18:23:48.988Z,4.78
2022-10-18T18:26:17.366Z,6.03
2022-10-18T18:28:44.292Z,5.80
2022-10-18T18:31:16.265Z,5.20
2022-10-18T18:33:43.608Z,4.97
2022-10-18T18:36:10.912Z,6.05
2022-10-18T18:38:39.670Z,5.38
2022-10-18T18:41:17.899Z,6.40
2022-10-18T18:43:49.266Z,6.10
2022-10-18T18:46:15.925Z,5.75
2022-10-18T18:48:42.607Z,5.97
2022-10-18T18:51:14.334Z,5.47
2022-10-18T18:53:42.171Z,6.38
2022-10-18T18:56:12.044Z,6.03
2022-10-18T18:58:40.103Z,5.97
2022-10-18T19:01:12.450Z,5.68
2022-10-18T19:03:40.349Z,6.00
2022-10-18T19:06:09.878Z,6.13
2022-10-18T19:08:38.288Z,6.90
2022-10-18T19:11:08.920Z,5.72
2022-10-18T19:13:36.196Z,6.25
2022-10-18T19:16:24.628Z,6.97
2022-10-18T19:18:59.950Z,6.38
2022-10-18T19:21:35.961Z,6.82
2022-10-18T19:24:03.901Z,7.23
2022-10-18T19:26:37.336Z,6.07
2022-10-18T19:29:09.643Z,7.00
2022-10-18T19:31:36.840Z,6.40
2022-10-18T19:34:05.763Z,5.88
2022-10-18T19:36:32.521Z,5.47
2022-10-18T19:38:59.261Z,4.55
2022-10-18T19:41:28.132Z,4.85
2022-10-18T19:43:55.907Z,5.25
2022-10-18T19:46:22.885Z,4.38
2022-10-18T19:48:49.585Z,4.50
2022-10-18T19:51:20.239Z,4.50
2022-10-18T19:53:50.725Z,4.10
2022-10-18T19:56:20.623Z,4.35
2022-10-18T19:58:48.062Z,4.07
2022-10-18T20:01:15.337Z,4.10
2022-10-18T20:03:42.806Z,3.92
2022-10-18T20:06:09.497Z,3.67
2022-10-18T20:08:37.100Z,3.80
2022-10-18T20:11:06.565Z,4.05
2022-10-18T20:13:33.937Z,4.75
2022-10-18T20:16:00.865Z,3.80
2022-10-18T20:18:27.667Z,3.90
2022-10-18T20:20:54.342Z,3.85
2022-10-18T20:23:21.261Z,3.95
2022-10-18T20:25:56.918Z,4.30
2022-10-18T20:28:24.990Z,4.18
2022-10-18T20:31:04.922Z,4.90
2022-10-18T20:33:31.647Z,4.43
2022-10-18T20:36:13.398Z,5.07
2022-10-18T20:38:41.270Z,4.90
2022-10-18T20:41:15.118Z,4.50
2022-10-18T20:43:42.507Z,4.20
2022-10-18T20:46:10.208Z,4.20
2022-10-18T20:48:38.553Z,4.10
2022-10-18T20:51:08.022Z,4.35
2022-10-18T20:53:35.598Z,3.88
2022-10-18T20:56:08.025Z,4.25
2022-10-18T20:58:35.718Z,4.00
2022-10-18T21:01:13.751Z,3.25
2022-10-18T21:03:42.811Z,3.85
2022-10-18T21:06:14.766Z,3.75
2022-10-18T21:08:42.101Z,4.00
2022-10-18T21:11:09.542Z,4.03
2022-10-18T21:13:47.461Z,4.18
2022-10-18T21:16:14.094Z,3.85
2022-10-18T21:18:40.676Z,3.80
2022-10-18T21:23:44.747Z,3.63
2022-10-18T21:26:22.489Z,3.85
2022-10-18T21:29:00.464Z,3.30
2022-10-18T21:31:36.224Z,3.25
2022-10-18T21:34:05.307Z,3.45
2022-10-18T21:36:34.654Z,3.00
2022-10-18T21:39:03.457Z,3.83
2022-10-18T21:41:31.174Z,3.88
2022-10-18T21:43:57.845Z,3.17
2022-10-18T21:46:26.851Z,3.28
2022-10-18T21:48:55.436Z,3.25
2022-10-18T21:51:24.388Z,3.85
2022-10-18T21:53:53.054Z,2.95
2022-10-18T21:56:21.903Z,3.60
2022-10-18T21:58:48.556Z,4.15
2022-10-18T22:01:23.860Z,2.80
2022-10-18T22:03:54.066Z,2.75
2022-10-18T22:06:21.959Z,3.15
2022-10-18T22:08:58.122Z,2.80
2022-10-18T22:11:28.565Z,3.20
2022-10-18T22:13:55.841Z,2.50
2022-10-18T22:16:22.707Z,3.00
2022-10-18T22:18:50.292Z,3.10
2022-10-18T22:21:20.029Z,3.40
2022-10-18T22:23:51.021Z,3.17
2022-10-18T22:26:29.080Z,2.95
2022-10-18T22:29:01.021Z,3.20
2022-10-18T22:31:30.943Z,2.80
2022-10-18T22:34:00.164Z,2.90
2022-10-18T22:36:27.629Z,3.25
2022-10-18T22:38:54.490Z,3.20
2022-10-18T22:41:21.113Z,3.15
2022-10-18T22:43:49.473Z,3.78
2022-10-18T22:46:16.493Z,3.10
2022-10-18T22:48:43.790Z,3.08
2022-10-18T22:51:10.921Z,3.63
2022-10-18T22:53:39.094Z,3.45
2022-10-18T22:56:06.629Z,2.80
2022-10-18T22:58:33.785Z,3.05
2022-10-18T23:01:05.604Z,3.28
2022-10-18T23:03:32.262Z,3.53
2022-10-18T23:05:59.296Z,3.08
2022-10-18T23:08:26.593Z,3.47
2022-10-18T23:10:55.841Z,3.47
2022-10-18T23:13:23.839Z,3.15
2022-10-18T23:15:51.004Z,3.17
2022-10-18T23:18:18.145Z,2.90
2022-10-18T23:20:45.518Z,2.72
2022-10-18T23:23:13.018Z,3.42
2022-10-18T23:25:40.188Z,3.78
2022-10-18T23:28:07.112Z,3.35
2022-10-18T23:30:33.850Z,3.67
2022-10-18T23:33:00.482Z,2.70
2022-10-18T23:35:29.443Z,2.92
2022-10-18T23:37:56.074Z,3.30
2022-10-18T23:40:22.640Z,3.03
2022-10-18T23:42:49.222Z,3.08
2022-10-18T23:45:15.814Z,2.72
2022-10-18T23:47:42.421Z,3.05
2022-10-18T23:50:09.615Z,3.20
2022-10-18T23:52:36.206Z,2.78
2022-10-18T23:55:02.971Z,3.22
2022-10-18T23:57:29.594Z,2.47
2022-10-18T23:59:56.187Z,2.83
